Time;durP1;ratioP1;P1;durP2;ratioP2;P2;SDS_P1;SDS_P2;PMS_P1;PMS_P2;Temp;Humidity;BMP_temperature;BMP_pressure;BME280_temperature;BME280_humidity;BME280_pressure;Samples;Min_cycle;Max_cycle;Signal;HPM_P1;HPM_P2
2023/03/29 00:03:27;;;;;;;8.07;4.40;;;;;3.40;96762.00;;;;8433056;28;20226;-75
2023/03/29 00:07:32;;;;;;;6.13;4.20;;;;;3.40;96765.00;;;;8435244;28;20197;-75
2023/03/29 00:11:35;;;;;;;5.53;3.83;;;;;3.40;96759.00;;;;8435142;28;20213;-75
2023/03/29 00:15:41;;;;;;;5.03;3.77;;;;;3.40;96758.00;;;;8427229;28;20562;-75
2023/03/29 00:19:45;;;;;;;7.27;3.80;;;;;3.40;96754.00;;;;8432514;28;20272;-75
2023/03/29 00:23:48;;;;;;;7.20;3.80;;;;;3.40;96754.00;;;;8432165;28;20690;-75
2023/03/29 00:27:51;;;;;;;7.33;3.67;;;;;3.40;96753.00;;;;8416317;28;20201;-75
2023/03/29 00:31:56;;;;;;;5.73;3.50;;;;;3.40;96749.00;;;;8432547;28;20224;-74
2023/03/29 00:36:00;;;;;;;7.97;3.67;;;;;3.40;96753.00;;;;8434216;28;20275;-75
2023/03/29 00:40:09;;;;;;;4.73;3.17;;;;;3.50;96745.00;;;;8432679;28;20277;-74
2023/03/29 00:44:50;;;;;;;8.43;3.73;;;;;3.50;96751.00;;;;8427272;28;20562;-75
2023/03/29 00:48:58;;;;;;;6.60;3.83;;;;;3.60;96741.00;;;;8430626;28;20199;-75
2023/03/29 00:53:06;;;;;;;7.67;3.37;;;;;3.60;96750.00;;;;8434126;28;20228;-75
2023/03/29 00:57:15;;;;;;;5.63;3.10;;;;;3.70;96760.00;;;;8433595;28;20933;-76
2023/03/29 01:01:27;;;;;;;5.83;3.20;;;;;3.70;96756.00;;;;8431661;28;20205;-75
2023/03/29 01:05:38;;;;;;;5.67;3.30;;;;;3.80;96756.00;;;;8432681;28;20646;-75
2023/03/29 01:09:48;;;;;;;8.97;3.80;;;;;3.80;96734.00;;;;8434511;28;20244;-76
2023/03/29 01:13:59;;;;;;;10.13;3.67;;;;;3.80;96725.00;;;;8432766;28;20222;-75
2023/03/29 01:18:02;;;;;;;6.20;3.20;;;;;3.90;96724.00;;;;8430527;28;20548;-75
2023/03/29 01:22:24;;;;;;;7.87;3.17;;;;;4.00;96719.00;;;;8414586;28;20259;-74
2023/03/29 01:26:36;;;;;;;5.43;3.30;;;;;4.00;96713.00;;;;8431825;28;20193;-75
2023/03/29 01:30:46;;;;;;;5.10;3.07;;;;;4.10;96705.00;;;;8431596;28;20582;-76
2023/03/29 01:34:57;;;;;;;6.47;3.00;;;;;4.20;96687.00;;;;8431508;28;20313;-77
2023/03/29 01:39:07;;;;;;;6.97;3.37;;;;;4.20;96679.00;;;;8432638;28;20247;-76
2023/03/29 01:43:18;;;;;;;6.37;4.00;;;;;4.30;96668.00;;;;8431338;28;20188;-76
2023/03/29 01:47:30;;;;;;;10.50;3.67;;;;;4.40;96663.00;;;;8431640;28;20655;-76
2023/03/29 01:51:38;;;;;;;7.07;3.60;;;;;4.40;96660.00;;;;8431319;28;20616;-77
2023/03/29 01:55:45;;;;;;;8.13;3.50;;;;;4.40;96665.00;;;;8432234;28;20600;-77
2023/03/29 01:59:54;;;;;;;5.40;3.37;;;;;4.40;96654.00;;;;8430085;28;20258;-77
2023/03/29 02:04:03;;;;;;;4.10;3.20;;;;;4.40;96661.00;;;;8430576;28;20219;-77
2023/03/29 02:08:09;;;;;;;6.03;3.13;;;;;4.40;96641.00;;;;8431358;28;20574;-77
2023/03/29 02:12:16;;;;;;;4.60;3.20;;;;;4.50;96637.00;;;;8429892;28;20214;-77
2023/03/29 02:16:20;;;;;;;6.50;3.63;;;;;4.40;96645.00;;;;8431893;28;20194;-78
2023/03/29 02:20:31;;;;;;;5.83;3.10;;;;;4.40;96639.00;;;;8429549;28;20279;-78
2023/03/29 02:24:37;;;;;;;8.27;3.73;;;;;4.20;96628.00;;;;8430799;28;20204;-78
2023/03/29 02:28:41;;;;;;;7.60;3.50;;;;;4.10;96627.00;;;;8431288;28;20244;-78
2023/03/29 02:32:54;;;;;;;7.47;3.67;;;;;3.90;96628.00;;;;8429884;28;20266;-83
2023/03/29 02:37:02;;;;;;;6.37;3.57;;;;;3.80;96616.00;;;;8431584;28;20229;-82
2023/03/29 02:41:09;;;;;;;9.47;4.23;;;;;3.80;96621.00;;;;8431193;28;20550;-80
2023/03/29 02:45:16;;;;;;;8.63;4.40;;;;;3.70;96630.00;;;;8426106;28;20206;-80
2023/03/29 02:49:20;;;;;;;7.17;3.60;;;;;3.60;96617.00;;;;8430708;28;20205;-80
2023/03/29 02:53:36;;;;;;;9.70;4.83;;;;;3.50;96613.00;;;;8430666;28;20252;-79
2023/03/29 02:57:39;;;;;;;8.97;4.60;;;;;3.40;96621.00;;;;8431396;28;20233;-79
2023/03/29 03:01:44;;;;;;;6.73;4.20;;;;;3.30;96610.00;;;;8458608;22;20552;-77
2023/03/29 03:05:47;;;;;;;7.10;4.70;;;;;3.20;96608.00;;;;8429664;28;20728;-77
2023/03/29 03:09:58;;;;;;;7.53;4.43;;;;;3.10;96604.00;;;;8444992;28;20215;-77
2023/03/29 03:14:04;;;;;;;9.00;4.13;;;;;3.00;96607.00;;;;8445438;28;20224;-77
2023/03/29 03:18:09;;;;;;;10.70;4.57;;;;;3.00;96607.00;;;;8442653;28;20191;-75
2023/03/29 03:22:15;;;;;;;13.63;5.03;;;;;3.00;96594.00;;;;8415480;28;20201;-75
2023/03/29 03:26:28;;;;;;;8.97;4.60;;;;;2.90;96605.00;;;;8450946;27;20243;-76
2023/03/29 03:30:33;;;;;;;8.20;4.70;;;;;2.80;96604.00;;;;8445998;27;20198;-79
2023/03/29 03:34:37;;;;;;;8.43;5.13;;;;;2.80;96597.00;;;;8449463;28;20231;-80
2023/03/29 03:38:42;;;;;;;13.43;5.23;;;;;2.80;96577.00;;;;8454045;27;20202;-76
2023/03/29 03:42:50;;;;;;;10.00;5.33;;;;;2.80;96576.00;;;;8450664;27;20273;-74
2023/03/29 03:46:52;;;;;;;6.37;5.00;;;;;2.80;96573.00;;;;8446240;28;20200;-74
2023/03/29 03:51:00;;;;;;;10.77;5.10;;;;;2.80;96577.00;;;;8446699;28;20256;-75
2023/03/29 03:55:07;;;;;;;14.27;5.80;;;;;2.80;96569.00;;;;8440017;27;20570;-75
2023/03/29 03:59:11;;;;;;;7.50;4.90;;;;;2.80;96560.00;;;;8439842;27;20200;-74
2023/03/29 04:03:14;;;;;;;14.33;6.00;;;;;2.80;96560.00;;;;8435150;27;20221;-75
2023/03/29 04:07:19;;;;;;;10.13;5.27;;;;;2.80;96562.00;;;;8431543;27;20246;-76
2023/03/29 04:11:24;;;;;;;12.60;5.63;;;;;2.80;96564.00;;;;8438468;27;20777;-81
2023/03/29 04:15:30;;;;;;;13.70;5.30;;;;;2.90;96555.00;;;;8434475;27;20283;-76
2023/03/29 04:19:35;;;;;;;11.20;5.63;;;;;2.80;96553.00;;;;8426304;27;20559;-74
2023/03/29 04:23:38;;;;;;;12.17;6.07;;;;;2.90;96558.00;;;;8420711;27;20289;-75
2023/03/29 04:27:44;;;;;;;15.60;6.00;;;;;2.90;96551.00;;;;8427237;27;20255;-78
2023/03/29 04:31:48;;;;;;;18.70;7.00;;;;;2.90;96546.00;;;;8424883;27;20598;-76
2023/03/29 04:35:52;;;;;;;10.27;5.60;;;;;3.00;96546.00;;;;8440095;27;20251;-84
2023/03/29 04:39:56;;;;;;;12.47;6.17;;;;;2.90;96542.00;;;;8437038;27;20284;-78
2023/03/29 04:44:00;;;;;;;12.70;7.57;;;;;2.90;96537.00;;;;8409637;27;20197;-79
2023/03/29 04:48:05;;;;;;;19.43;7.57;;;;;2.90;96535.00;;;;8407183;27;20751;-77
2023/03/29 04:52:14;;;;;;;12.73;7.17;;;;;2.90;96542.00;;;;8410023;27;20651;-81
2023/03/29 04:56:23;;;;;;;12.50;7.37;;;;;2.80;96549.00;;;;8437981;28;20230;-85
2023/03/29 05:00:27;;;;;;;17.40;8.03;;;;;2.90;96548.00;;;;8436312;28;20271;-90
2023/03/29 05:04:32;;;;;;;18.97;8.23;;;;;2.90;96542.00;;;;8427999;28;20234;-85
2023/03/29 05:08:41;;;;;;;16.97;8.73;;;;;2.90;96541.00;;;;8439144;27;20282;-86
2023/03/29 05:12:44;;;;;;;18.53;8.33;;;;;2.90;96540.00;;;;8439665;28;20205;-90
2023/03/29 05:16:50;;;;;;;17.50;8.37;;;;;2.90;96553.00;;;;8445274;28;20316;-79
2023/03/29 05:20:55;;;;;;;21.53;9.03;;;;;3.00;96537.00;;;;8438190;28;20190;-78
2023/03/29 05:24:58;;;;;;;13.17;8.70;;;;;3.00;96536.00;;;;8438716;28;20218;-79
2023/03/29 05:29:01;;;;;;;16.23;8.70;;;;;3.00;96541.00;;;;8438377;27;20193;-78
2023/03/29 05:33:07;;;;;;;21.00;9.20;;;;;3.00;96535.00;;;;8440867;28;20200;-78
2023/03/29 05:37:14;;;;;;;28.27;12.13;;;;;3.00;96520.00;;;;8441461;28;20193;-77
2023/03/29 05:41:17;;;;;;;25.90;9.17;;;;;3.10;96516.00;;;;8430378;28;20197;-77
2023/03/29 05:45:27;;;;;;;19.43;8.43;;;;;3.10;96513.00;;;;8436984;28;20228;-77
2023/03/29 05:49:30;;;;;;;15.67;8.53;;;;;3.20;96525.00;;;;8437252;28;20208;-77
2023/03/29 05:53:35;;;;;;;18.37;10.27;;;;;3.30;96513.00;;;;8440890;28;20737;-77
2023/03/29 05:57:38;;;;;;;20.53;10.03;;;;;3.40;96516.00;;;;8446277;28;20733;-77
2023/03/29 06:01:45;;;;;;;18.47;9.20;;;;;3.50;96521.00;;;;8445359;28;20682;-77
2023/03/29 06:05:56;;;;;;;15.33;8.53;;;;;3.70;96514.00;;;;8434801;28;20277;-77
2023/03/29 06:10:01;;;;;;;14.50;7.67;;;;;3.80;96508.00;;;;8447143;28;20244;-77
2023/03/29 06:14:07;;;;;;;15.47;8.33;;;;;3.80;96511.00;;;;8436268;27;20227;-78
2023/03/29 06:18:13;;;;;;;14.07;8.30;;;;;3.80;96494.00;;;;8443154;28;20198;-78
2023/03/29 06:22:19;;;;;;;17.27;8.70;;;;;4.10;96494.00;;;;8434832;28;20266;-79
2023/03/29 06:26:27;;;;;;;20.70;8.83;;;;;4.20;96500.00;;;;8437466;27;20204;-77
2023/03/29 06:30:31;;;;;;;12.73;8.30;;;;;4.20;96513.00;;;;8439102;28;20235;-78
2023/03/29 06:34:34;;;;;;;16.33;8.63;;;;;4.20;96523.00;;;;8416574;28;20225;-77
2023/03/29 06:38:46;;;;;;;14.73;9.33;;;;;4.30;96511.00;;;;8435381;28;20198;-79
2023/03/29 06:42:56;;;;;;;19.67;9.33;;;;;4.40;96509.00;;;;8439636;28;20195;-82
2023/03/29 06:47:04;;;;;;;16.70;9.10;;;;;4.50;96512.00;;;;8440015;28;20197;-82
2023/03/29 06:51:11;;;;;;;19.90;10.07;;;;;4.40;96521.00;;;;8443810;28;20201;-81
2023/03/29 06:55:14;;;;;;;21.27;11.57;;;;;4.50;96523.00;;;;8445151;28;20233;-81
2023/03/29 06:59:24;;;;;;;17.83;9.73;;;;;4.50;96523.00;;;;8447774;28;20220;-80
2023/03/29 07:03:27;;;;;;;13.77;8.73;;;;;4.60;96519.00;;;;8455479;28;20586;-81
2023/03/29 07:07:52;;;;;;;15.73;8.77;;;;;4.60;96525.00;;;;8444954;28;20197;-81
2023/03/29 07:11:57;;;;;;;13.53;8.93;;;;;4.80;96527.00;;;;8455299;28;20197;-79
2023/03/29 07:16:01;;;;;;;15.60;9.23;;;;;4.90;96534.00;;;;8449910;28;20229;-78
2023/03/29 07:20:12;;;;;;;15.40;9.60;;;;;5.00;96526.00;;;;8455930;28;21021;-78
2023/03/29 07:24:15;;;;;;;15.23;9.17;;;;;5.10;96536.00;;;;8448976;28;20886;-77
2023/03/29 07:28:21;;;;;;;15.70;9.60;;;;;5.30;96544.00;;;;8449922;27;20628;-76
2023/03/29 07:32:32;;;;;;;19.20;9.33;;;;;5.40;96547.00;;;;8441209;28;20202;-83
2023/03/29 07:36:35;;;;;;;12.97;8.80;;;;;5.40;96548.00;;;;8433854;27;20274;-81
2023/03/29 07:40:39;;;;;;;16.40;9.70;;;;;5.40;96538.00;;;;8445137;28;20696;-82
2023/03/29 07:44:42;;;;;;;16.27;9.00;;;;;5.50;96540.00;;;;8438350;28;20207;-82
2023/03/29 07:48:47;;;;;;;13.33;9.20;;;;;5.60;96538.00;;;;8446289;27;20202;-83
2023/03/29 07:52:50;;;;;;;16.40;9.23;;;;;5.60;96544.00;;;;8444226;27;20307;-73
2023/03/29 07:56:58;;;;;;;14.50;8.67;;;;;5.70;96552.00;;;;8429115;28;20602;-74
2023/03/29 08:01:04;;;;;;;15.07;8.40;;;;;5.90;96535.00;;;;8446886;28;20220;-73
2023/03/29 08:05:12;;;;;;;15.90;8.80;;;;;6.00;96535.00;;;;8456025;28;20230;-73
2023/03/29 08:09:16;;;;;;;15.90;8.93;;;;;6.20;96541.00;;;;8430597;28;20893;-73
2023/03/29 08:13:19;;;;;;;18.10;10.00;;;;;6.40;96553.00;;;;8445437;28;20198;-73
2023/03/29 08:17:26;;;;;;;15.03;9.50;;;;;6.50;96537.00;;;;8413895;28;20235;-73
2023/03/29 08:21:30;;;;;;;12.00;8.47;;;;;6.70;96542.00;;;;8431885;28;20739;-73
2023/03/29 08:25:34;;;;;;;13.33;9.10;;;;;6.90;96530.00;;;;8450672;28;20742;-73
2023/03/29 08:29:37;;;;;;;11.93;8.40;;;;;7.20;96543.00;;;;8446938;28;20195;-73
2023/03/29 08:33:41;;;;;;;14.07;7.40;;;;;7.60;96543.00;;;;8448118;28;20559;-73
2023/03/29 08:37:46;;;;;;;13.20;7.70;;;;;7.80;96546.00;;;;8448551;27;20231;-73
2023/03/29 08:41:58;;;;;;;10.87;7.40;;;;;8.00;96534.00;;;;8445676;27;20207;-73
2023/03/29 08:46:16;;;;;;;12.37;7.57;;;;;8.30;96536.00;;;;8451846;27;20704;-73
2023/03/29 08:50:22;;;;;;;11.17;7.47;;;;;8.90;96535.00;;;;8449861;27;20659;-74
2023/03/29 08:54:34;;;;;;;10.50;6.87;;;;;9.50;96539.00;;;;8449866;28;20563;-73
2023/03/29 08:58:38;;;;;;;9.57;6.87;;;;;10.10;96540.00;;;;8450043;28;20843;-73
2023/03/29 09:02:46;;;;;;;11.17;7.13;;;;;10.70;96532.00;;;;8452736;27;20275;-73
2023/03/29 09:06:50;;;;;;;10.67;6.87;;;;;10.80;96531.00;;;;8441024;28;20228;-73
2023/03/29 09:11:23;;;;;;;10.82;7.05;;;;;10.90;96540.00;;;;8426987;28;20604;-73
2023/03/29 09:15:30;;;;;;;9.90;6.88;;;;;11.20;96545.00;;;;8399795;28;20681;-73
2023/03/29 09:19:39;;;;;;;10.75;6.15;;;;;11.30;96544.00;;;;8432854;27;20559;-73
2023/03/29 09:24:02;;;;;;;8.60;6.03;;;;;11.70;96528.00;;;;8432172;28;20245;-73
2023/03/29 09:28:14;;;;;;;9.32;5.93;;;;;11.90;96534.00;;;;8435681;28;20461;-73
2023/03/29 09:32:22;;;;;;;8.43;6.38;;;;;12.20;96539.00;;;;8440916;27;20760;-74
2023/03/29 09:36:32;;;;;;;7.65;5.45;;;;;12.60;96530.00;;;;8439516;27;20256;-70
2023/03/29 09:40:45;;;;;;;8.60;5.95;;;;;12.70;96521.00;;;;8440813;28;20675;-71
2023/03/29 09:44:53;;;;;;;6.97;5.30;;;;;12.90;96520.00;;;;8441205;28;20220;-69
2023/03/29 09:48:56;;;;;;;7.95;5.43;;;;;13.10;96513.00;;;;8431596;28;20207;-70
2023/03/29 09:53:00;;;;;;;10.98;5.38;;;;;13.20;96520.00;;;;8448785;27;20196;-69
2023/03/29 09:57:13;;;;;;;7.88;5.28;;;;;13.20;96517.00;;;;8438088;27;20228;-69
2023/03/29 10:01:20;;;;;;;10.40;5.50;;;;;13.30;96522.00;;;;8420398;27;20187;-69
2023/03/29 10:05:28;;;;;;;6.50;5.47;;;;;13.40;96521.00;;;;8444318;28;20233;-69
2023/03/29 10:09:37;;;;;;;7.25;5.30;;;;;13.50;96515.00;;;;8437824;27;20813;-69
2023/03/29 10:13:46;;;;;;;6.78;5.47;;;;;13.50;96511.00;;;;8451326;28;20202;-69
2023/03/29 10:18:02;;;;;;;6.57;5.10;;;;;13.60;96512.00;;;;8448466;28;20230;-70
2023/03/29 10:22:08;;;;;;;8.63;5.20;;;;;13.60;96515.00;;;;8441033;28;20711;-68
2023/03/29 10:26:25;;;;;;;8.20;5.20;;;;;13.70;96498.00;;;;8421340;28;20611;-68
2023/03/29 10:30:37;;;;;;;5.93;4.70;;;;;13.80;96508.00;;;;8409780;28;20194;-68
2023/03/29 10:34:45;;;;;;;6.78;4.00;;;;;13.90;96506.00;;;;8413587;28;20626;-68
2023/03/29 10:38:49;;;;;;;4.57;4.05;;;;;14.00;96504.00;;;;8442422;28;20939;-68
2023/03/29 10:42:53;;;;;;;8.40;3.10;;;;;14.10;96503.00;;;;8436644;28;20240;-68
2023/03/29 10:47:14;;;;;;;4.28;2.90;;;;;14.30;96493.00;;;;8441307;28;20194;-68
2023/03/29 10:51:20;;;;;;;4.35;2.55;;;;;14.30;96496.00;;;;8437075;28;20190;-69
2023/03/29 10:55:32;;;;;;;3.35;2.80;;;;;14.30;96495.00;;;;8435209;28;21268;-69
2023/03/29 10:59:45;;;;;;;3.35;3.05;;;;;14.20;96501.00;;;;8448089;28;20212;-68
2023/03/29 11:03:59;;;;;;;5.18;2.90;;;;;13.90;96490.00;;;;8437748;28;20233;-69
2023/03/29 11:08:26;;;;;;;6.38;3.33;;;;;13.50;96490.00;;;;8440663;28;20265;-69
2023/03/29 11:12:40;;;;;;;4.72;2.60;;;;;13.20;96486.00;;;;8434334;28;20285;-69
2023/03/29 11:16:51;;;;;;;3.83;3.28;;;;;13.10;96476.00;;;;8436622;28;20293;-69
2023/03/29 11:21:09;;;;;;;3.70;2.83;;;;;12.90;96483.00;;;;8439478;28;20197;-69
2023/03/29 11:25:29;;;;;;;3.95;3.03;;;;;12.90;96476.00;;;;8432440;28;20201;-68
2023/03/29 11:29:44;;;;;;;3.15;2.78;;;;;13.10;96474.00;;;;8426333;28;20647;-69
2023/03/29 11:33:55;;;;;;;3.33;2.90;;;;;13.20;96484.00;;;;8430407;28;20215;-69
2023/03/29 11:38:05;;;;;;;8.43;3.30;;;;;13.40;96473.00;;;;8444197;28;20248;-69
2023/03/29 11:42:17;;;;;;;2.60;2.30;;;;;13.60;96474.00;;;;8425077;28;20285;-69
2023/03/29 11:46:27;;;;;;;3.28;2.50;;;;;13.60;96472.00;;;;8431947;27;20190;-70
2023/03/29 11:50:44;;;;;;;4.93;2.80;;;;;14.00;96469.00;;;;8445764;28;20199;-70
2023/03/29 11:54:54;;;;;;;7.20;2.25;;;;;14.10;96474.00;;;;8446914;28;20284;-71
2023/03/29 11:59:06;;;;;;;5.68;2.97;;;;;14.00;96464.00;;;;8444486;27;20219;-71
2023/03/29 12:03:14;;;;;;;4.47;2.40;;;;;14.10;96483.00;;;;8451943;27;20667;-71
2023/03/29 12:07:23;;;;;;;4.10;2.60;;;;;14.20;96471.00;;;;8438753;27;20286;-71
2023/03/29 12:11:30;;;;;;;3.42;2.35;;;;;14.40;96472.00;;;;8441097;28;20261;-72
2023/03/29 12:15:42;;;;;;;3.83;2.72;;;;;14.60;96461.00;;;;8433669;27;20594;-72
2023/03/29 12:19:50;;;;;;;7.22;2.60;;;;;14.70;96449.00;;;;8433210;28;20251;-73
2023/03/29 12:23:54;;;;;;;5.65;3.05;;;;;14.80;96450.00;;;;8444293;28;20194;-72
2023/03/29 12:28:14;;;;;;;4.38;2.38;;;;;14.90;96454.00;;;;8437627;28;20194;-72
2023/03/29 12:32:36;;;;;;;4.60;3.03;;;;;14.90;96443.00;;;;8431066;28;20194;-72
2023/03/29 12:37:30;;;;;;;6.70;2.75;;;;;15.10;96457.00;;;;8439580;28;20666;-73
2023/03/29 12:41:47;;;;;;;4.07;2.88;;;;;15.20;96462.00;;;;8363480;28;20183;-73
2023/03/29 12:45:55;;;;;;;3.20;2.90;;;;;15.50;96453.00;;;;8450269;27;20279;-74
2023/03/29 12:50:04;;;;;;;6.13;3.05;;;;;15.70;96460.00;;;;8435787;27;20196;-74
2023/03/29 12:54:14;;;;;;;7.43;2.92;;;;;15.60;96444.00;;;;8445208;27;20988;-72
2023/03/29 12:58:38;;;;;;;6.93;3.17;;;;;15.40;96449.00;;;;8443592;27;20275;-72
2023/03/29 13:02:45;;;;;;;3.03;2.67;;;;;15.60;96440.00;;;;8445026;28;20228;-72
2023/03/29 13:07:01;;;;;;;5.18;2.88;;;;;15.80;96445.00;;;;8446500;28;20230;-72
2023/03/29 13:11:06;;;;;;;4.72;2.65;;;;;16.10;96439.00;;;;8450376;27;20659;-73
2023/03/29 13:15:24;;;;;;;4.68;2.72;;;;;16.00;96443.00;;;;8453013;27;20220;-73
2023/03/29 13:19:35;;;;;;;7.30;2.80;;;;;16.10;96426.00;;;;8419251;28;20233;-73
2023/03/29 13:23:51;;;;;;;3.10;2.75;;;;;16.20;96439.00;;;;8443328;27;20244;-73
2023/03/29 13:28:03;;;;;;;5.00;2.47;;;;;16.20;96439.00;;;;8439649;28;20199;-73
2023/03/29 13:32:26;;;;;;;6.32;2.60;;;;;16.20;96434.00;;;;8443629;28;20784;-74
2023/03/29 13:36:51;;;;;;;4.00;2.80;;;;;16.10;96426.00;;;;8439793;27;20345;-73
2023/03/29 13:41:08;;;;;;;3.92;2.63;;;;;16.10;96428.00;;;;8448235;27;20198;-73
2023/03/29 13:45:16;;;;;;;10.80;2.88;;;;;16.20;96411.00;;;;8448510;27;20190;-73
2023/03/29 13:49:22;;;;;;;3.80;2.63;;;;;16.30;96410.00;;;;8446441;27;20553;-73
2023/03/29 13:53:31;;;;;;;5.70;2.67;;;;;16.50;96405.00;;;;8397127;28;20195;-74
2023/03/29 13:57:40;;;;;;;3.22;2.60;;;;;16.70;96409.00;;;;8418444;28;20230;-72
2023/03/29 14:01:49;;;;;;;3.88;2.40;;;;;17.00;96395.00;;;;8441829;28;20360;-72
2023/03/29 14:05:57;;;;;;;8.02;2.75;;;;;17.20;96401.00;;;;8442108;28;20205;-73
2023/03/29 14:10:01;;;;;;;3.33;2.70;;;;;17.20;96397.00;;;;8447751;27;20244;-72
2023/03/29 14:14:09;;;;;;;2.67;2.47;;;;;17.10;96394.00;;;;8442260;28;20194;-72
2023/03/29 14:18:19;;;;;;;4.32;3.03;;;;;16.70;96391.00;;;;8450328;27;20310;-73
2023/03/29 14:22:24;;;;;;;4.45;2.45;;;;;16.40;96397.00;;;;8449419;27;20285;-72
2023/03/29 14:26:32;;;;;;;2.92;2.20;;;;;16.00;96393.00;;;;8442758;27;20195;-72
2023/03/29 14:30:38;;;;;;;3.47;2.30;;;;;15.90;96397.00;;;;8438278;28;20199;-73
2023/03/29 14:34:48;;;;;;;2.83;2.20;;;;;15.80;96388.00;;;;8430022;28;20654;-73
2023/03/29 14:38:56;;;;;;;6.45;2.80;;;;;15.80;96390.00;;;;8437786;27;20990;-72
2023/03/29 14:43:04;;;;;;;4.45;2.70;;;;;15.80;96392.00;;;;8430502;28;20255;-73
2023/03/29 14:47:16;;;;;;;4.00;2.13;;;;;16.00;96387.00;;;;8444582;27;20202;-72
2023/03/29 14:51:22;;;;;;;3.33;2.53;;;;;16.10;96384.00;;;;8440271;28;20644;-73
2023/03/29 14:55:26;;;;;;;2.95;2.35;;;;;16.10;96385.00;;;;8443393;28;20211;-73
2023/03/29 14:59:44;;;;;;;6.15;3.75;;;;;16.10;96388.00;;;;8444338;28;20260;-73
2023/03/29 15:03:53;;;;;;;6.85;4.82;;;;;16.20;96387.00;;;;8443235;28;20737;-74
2023/03/29 15:07:57;;;;;;;10.25;5.13;;;;;16.20;96386.00;;;;8434628;28;20203;-71
2023/03/29 15:12:02;;;;;;;7.28;5.38;;;;;16.10;96378.00;;;;8439290;28;20338;-73
2023/03/29 15:16:06;;;;;;;9.82;5.20;;;;;15.80;96388.00;;;;8437125;28;20200;-72
2023/03/29 15:20:20;;;;;;;11.93;6.55;;;;;15.60;96381.00;;;;8432175;27;20247;-72
2023/03/29 15:24:29;;;;;;;12.55;5.90;;;;;15.30;96370.00;;;;8440568;27;20203;-72
2023/03/29 15:28:34;;;;;;;7.63;5.90;;;;;15.20;96357.00;;;;8441870;28;20264;-71
2023/03/29 15:32:38;;;;;;;27.02;14.18;;;;;15.20;96363.00;;;;8438257;27;20191;-76
2023/03/29 15:36:46;;;;;;;25.35;13.70;;;;;15.30;96357.00;;;;8438195;27;20199;-75
2023/03/29 15:40:49;;;;;;;9.18;6.90;;;;;15.40;96352.00;;;;8442602;28;22053;-75
2023/03/29 15:44:57;;;;;;;12.30;7.72;;;;;15.40;96349.00;;;;8454172;28;20202;-76
2023/03/29 15:49:10;;;;;;;12.15;8.18;;;;;15.50;96351.00;;;;8427387;28;20664;-75
2023/03/29 15:53:19;;;;;;;6.75;5.38;;;;;15.50;96349.00;;;;8428331;27;20209;-75
2023/03/29 15:57:25;;;;;;;7.22;5.60;;;;;15.30;96342.00;;;;8449845;27;20225;-75
2023/03/29 16:01:36;;;;;;;8.35;5.55;;;;;15.10;96335.00;;;;8444992;27;20191;-75
2023/03/29 16:05:42;;;;;;;9.02;6.38;;;;;15.00;96341.00;;;;8425766;28;20207;-75
2023/03/29 16:09:47;;;;;;;8.30;6.25;;;;;14.90;96343.00;;;;8436246;27;20248;-73
2023/03/29 16:13:58;;;;;;;9.80;6.00;;;;;14.80;96334.00;;;;8435324;27;20293;-73
2023/03/29 16:18:03;;;;;;;8.85;5.50;;;;;14.60;96337.00;;;;8428491;27;20235;-74
2023/03/29 16:22:09;;;;;;;9.77;6.03;;;;;14.40;96325.00;;;;8444359;27;20199;-74
2023/03/29 16:26:14;;;;;;;12.15;6.07;;;;;14.30;96334.00;;;;8423306;28;20865;-73
2023/03/29 16:30:18;;;;;;;8.45;5.88;;;;;14.10;96330.00;;;;8441176;27;20206;-74
2023/03/29 16:34:22;;;;;;;8.05;6.15;;;;;14.00;96331.00;;;;8456843;27;20834;-73
2023/03/29 16:38:27;;;;;;;10.48;6.78;;;;;13.90;96333.00;;;;8433790;27;20280;-76
2023/03/29 16:42:32;;;;;;;9.48;6.40;;;;;13.80;96337.00;;;;8451923;27;20199;-74
2023/03/29 16:46:35;;;;;;;10.10;6.18;;;;;13.80;96325.00;;;;8455014;27;20204;-74
2023/03/29 16:50:39;;;;;;;16.48;7.80;;;;;13.60;96319.00;;;;8438876;27;20636;-74
2023/03/29 16:54:42;;;;;;;8.60;6.20;;;;;13.40;96319.00;;;;8458016;27;20205;-73
2023/03/29 16:58:47;;;;;;;7.35;6.47;;;;;13.20;96321.00;;;;8449800;27;20223;-73
2023/03/29 17:02:54;;;;;;;11.07;6.68;;;;;13.00;96316.00;;;;8449837;27;20263;-74
2023/03/29 17:07:00;;;;;;;11.88;6.85;;;;;12.80;96311.00;;;;8452511;27;20670;-73
2023/03/29 17:11:06;;;;;;;11.65;7.72;;;;;12.70;96311.00;;;;8442732;28;20578;-73
2023/03/29 17:15:12;;;;;;;9.10;6.82;;;;;12.60;96311.00;;;;8430360;27;20591;-72
2023/03/29 17:19:16;;;;;;;11.90;7.10;;;;;12.50;96323.00;;;;8424198;28;20278;-73
2023/03/29 17:23:19;;;;;;;10.40;6.63;;;;;12.40;96321.00;;;;8432055;27;20199;-71
2023/03/29 17:27:22;;;;;;;186.43;70.60;;;;;12.30;96317.00;;;;8432300;27;20651;-73
2023/03/29 17:31:29;;;;;;;45.35;27.63;;;;;12.20;96320.00;;;;8436269;27;20202;-71
2023/03/29 17:35:32;;;;;;;63.63;44.60;;;;;12.00;96315.00;;;;8448195;27;20225;-73
2023/03/29 17:39:36;;;;;;;164.35;93.82;;;;;11.80;96317.00;;;;8409287;27;20233;-74
2023/03/29 17:43:39;;;;;;;43.20;28.00;;;;;11.60;96315.00;;;;8429389;27;21252;-73
2023/03/29 17:47:44;;;;;;;91.00;51.08;;;;;11.40;96317.00;;;;8440812;27;20207;-74
2023/03/29 17:51:47;;;;;;;589.58;324.35;;;;;11.20;96310.00;;;;8433269;27;20211;-73
2023/03/29 17:55:52;;;;;;;181.63;88.68;;;;;11.00;96313.00;;;;8444191;27;20195;-73
2023/03/29 17:59:55;;;;;;;1308.40;637.67;;;;;10.80;96320.00;;;;8440648;27;20682;-73
2023/03/29 18:04:02;;;;;;;176.27;95.50;;;;;10.70;96327.00;;;;8439048;27;20318;-72
2023/03/29 18:08:07;;;;;;;61.83;40.35;;;;;10.60;96333.00;;;;8446516;28;20306;-75
2023/03/29 18:12:10;;;;;;;132.30;75.93;;;;;10.40;96335.00;;;;8435877;27;20203;-74
2023/03/29 18:16:14;;;;;;;56.45;44.10;;;;;10.30;96333.00;;;;8430169;27;20203;-74
2023/03/29 18:20:21;;;;;;;31.25;24.88;;;;;10.30;96332.00;;;;8416107;28;20322;-75
2023/03/29 18:24:27;;;;;;;21.95;16.55;;;;;10.20;96340.00;;;;8414524;28;20202;-74
2023/03/29 18:28:31;;;;;;;143.43;106.93;;;;;10.10;96331.00;;;;8429301;27;21927;-74
2023/03/29 18:32:37;;;;;;;38.08;28.08;;;;;10.10;96338.00;;;;8426994;27;20242;-74
2023/03/29 18:36:45;;;;;;;96.18;72.60;;;;;10.10;96330.00;;;;8432197;28;20192;-74
2023/03/29 18:40:49;;;;;;;32.83;24.80;;;;;10.10;96337.00;;;;8440534;27;20833;-72
2023/03/29 18:44:54;;;;;;;17.55;12.30;;;;;10.10;96338.00;;;;8424171;28;20210;-71
2023/03/29 18:48:58;;;;;;;19.48;15.52;;;;;10.00;96341.00;;;;8407055;28;20279;-72
2023/03/29 18:53:02;;;;;;;21.73;14.30;;;;;10.00;96352.00;;;;8432111;27;20202;-74
2023/03/29 18:57:06;;;;;;;19.13;14.38;;;;;9.90;96336.00;;;;8445738;27;20195;-72
2023/03/29 19:01:12;;;;;;;16.33;11.85;;;;;9.90;96341.00;;;;8450262;27;20228;-72
2023/03/29 19:05:16;;;;;;;36.80;27.70;;;;;9.90;96344.00;;;;8446477;27;20687;-72
2023/03/29 19:09:22;;;;;;;13.43;9.13;;;;;9.90;96339.00;;;;8443624;27;20973;-71
2023/03/29 19:13:26;;;;;;;22.08;15.20;;;;;9.90;96324.00;;;;8439434;27;20542;-72
2023/03/29 19:17:29;;;;;;;19.07;12.93;;;;;9.80;96336.00;;;;8449866;27;21062;-70
2023/03/29 19:21:37;;;;;;;15.43;10.02;;;;;9.70;96335.00;;;;8440430;27;20306;-71
2023/03/29 19:25:42;;;;;;;16.10;10.05;;;;;9.60;96343.00;;;;8446142;27;20195;-72
2023/03/29 19:29:45;;;;;;;17.95;10.10;;;;;9.70;96345.00;;;;8452064;27;21073;-69
2023/03/29 19:33:50;;;;;;;14.95;10.73;;;;;9.80;96336.00;;;;8460293;27;20604;-71
2023/03/29 19:37:53;;;;;;;15.27;10.23;;;;;9.80;96333.00;;;;8446129;27;20194;-71
2023/03/29 19:42:03;;;;;;;13.88;9.88;;;;;9.70;96316.00;;;;8452422;27;20222;-71
2023/03/29 19:46:09;;;;;;;17.40;9.98;;;;;9.80;96308.00;;;;8458154;27;20202;-72
2023/03/29 19:50:12;;;;;;;25.50;11.18;;;;;9.70;96302.00;;;;8457847;27;20226;-72
2023/03/29 19:54:18;;;;;;;15.63;10.57;;;;;9.80;96300.00;;;;8446022;27;20190;-72
2023/03/29 19:58:23;;;;;;;14.52;9.68;;;;;9.80;96293.00;;;;8445706;27;20640;-71
2023/03/29 20:02:28;;;;;;;18.10;10.43;;;;;9.80;96297.00;;;;8445603;27;20267;-71
2023/03/29 20:06:31;;;;;;;16.07;10.30;;;;;9.80;96291.00;;;;8451507;28;20782;-69
2023/03/29 20:10:35;;;;;;;14.52;10.13;;;;;9.90;96291.00;;;;8446518;28;20648;-70
2023/03/29 20:14:42;;;;;;;16.93;10.53;;;;;9.90;96279.00;;;;8442353;28;20276;-71
2023/03/29 20:18:47;;;;;;;17.03;10.80;;;;;10.00;96274.00;;;;8445520;28;20227;-70
2023/03/29 20:22:52;;;;;;;18.08;10.57;;;;;9.90;96275.00;;;;8439738;27;20275;-69
2023/03/29 20:26:55;;;;;;;15.23;9.82;;;;;9.90;96281.00;;;;8450449;28;20234;-70
2023/03/29 20:31:03;;;;;;;16.60;9.80;;;;;9.90;96289.00;;;;8439492;28;20217;-70
2023/03/29 20:35:09;;;;;;;18.35;10.75;;;;;9.90;96282.00;;;;8426986;28;20191;-71
2023/03/29 20:39:16;;;;;;;18.27;10.23;;;;;9.80;96287.00;;;;8449961;28;20226;-70